createdAt,value
2022-12-06T00:01:22.577Z,49.90
2022-12-06T00:03:53.590Z,48.50
2022-12-06T00:06:22.272Z,44.90
2022-12-06T00:08:51.818Z,46.60
2022-12-06T00:11:24.970Z,45.20
2022-12-06T00:13:57.441Z,38.30
2022-12-06T00:16:25.345Z,32.90
2022-12-06T00:18:52.587Z,41.80
2022-12-06T00:21:21.355Z,48.90
2022-12-06T00:23:50.758Z,57.70
2022-12-06T00:26:18.088Z,59.90
2022-12-06T00:28:45.673Z,68.20
2022-12-06T00:31:18.278Z,68.50
2022-12-06T00:33:45.471Z,68.70
2022-12-06T00:36:16.115Z,81.90
2022-12-06T00:38:43.067Z,84.40
2022-12-06T00:41:18.616Z,91.30
2022-12-06T00:43:46.269Z,88.60
2022-12-06T00:46:18.377Z,92.60
2022-12-06T00:48:46.608Z,99.90
2022-12-06T00:51:14.869Z,99.90
2022-12-06T00:53:42.568Z,99.90
2022-12-06T00:56:09.789Z,99.90
2022-12-06T00:58:36.738Z,99.90
2022-12-06T01:01:17.011Z,99.90
2022-12-06T01:03:45.152Z,99.90
2022-12-06T01:06:15.587Z,99.90
2022-12-06T01:08:43.171Z,99.90
2022-12-06T01:11:13.150Z,99.90
2022-12-06T01:13:40.459Z,99.90
2022-12-06T01:16:12.988Z,99.90
2022-12-06T01:18:41.243Z,99.90
2022-12-06T01:21:16.105Z,99.90
2022-12-06T01:23:44.862Z,99.90
2022-12-06T01:26:23.632Z,99.90
2022-12-06T01:28:50.549Z,99.90
2022-12-06T01:31:17.636Z,99.90
2022-12-06T01:33:45.267Z,99.90
2022-12-06T01:36:20.212Z,99.90
2022-12-06T01:38:51.898Z,99.90
2022-12-06T01:41:20.932Z,99.90
2022-12-06T01:43:48.163Z,99.90
2022-12-06T01:46:50.420Z,99.90
2022-12-06T01:49:20.887Z,99.90
2022-12-06T01:52:00.487Z,99.90
2022-12-06T01:54:27.789Z,99.90
2022-12-06T01:56:56.275Z,99.90
2022-12-06T01:59:24.806Z,99.90
2022-12-06T02:01:52.164Z,99.90
2022-12-06T02:04:20.506Z,99.90
2022-12-06T02:06:49.150Z,99.90
2022-12-06T02:09:17.778Z,99.90
2022-12-06T02:11:45.994Z,99.90
2022-12-06T02:14:18.493Z,99.90
2022-12-06T02:16:45.448Z,99.90
2022-12-06T02:19:47.971Z,99.90
2022-12-06T02:22:17.594Z,99.90
2022-12-06T02:24:56.415Z,99.90
2022-12-06T02:27:29.295Z,99.90
2022-12-06T02:30:09.633Z,99.90
2022-12-06T02:32:57.357Z,99.90
2022-12-06T02:35:34.822Z,99.90
2022-12-06T02:38:29.951Z,99.90
2022-12-06T02:41:04.325Z,99.90
2022-12-06T02:43:40.708Z,99.90
2022-12-06T02:46:10.248Z,99.90
2022-12-06T02:48:38.092Z,99.90
2022-12-06T02:51:11.962Z,99.90
2022-12-06T02:53:44.747Z,99.90
2022-12-06T02:56:13.509Z,99.90
2022-12-06T02:58:40.351Z,99.90
2022-12-06T03:01:39.767Z,99.90
2022-12-06T03:04:18.659Z,99.90
2022-12-06T03:07:01.374Z,99.90
2022-12-06T03:09:51.198Z,99.90
2022-12-06T03:12:21.429Z,99.90
2022-12-06T03:15:01.412Z,99.90
2022-12-06T03:17:38.769Z,99.90
2022-12-06T03:20:15.846Z,99.90
2022-12-06T03:22:48.272Z,99.90
2022-12-06T03:25:15.948Z,99.90
2022-12-06T03:27:45.569Z,99.90
2022-12-06T03:30:14.185Z,99.90
2022-12-06T03:32:44.810Z,99.90
2022-12-06T03:35:14.384Z,99.90
2022-12-06T03:37:44.774Z,99.90
2022-12-06T03:40:11.943Z,99.90
2022-12-06T03:42:39.243Z,99.90
2022-12-06T03:45:07.326Z,99.90
2022-12-06T03:47:40.089Z,99.90
2022-12-06T03:50:17.323Z,99.90
2022-12-06T03:52:44.282Z,99.90
2022-12-06T03:55:11.361Z,99.90
2022-12-06T03:57:38.181Z,99.90
2022-12-06T04:00:06.219Z,99.90
2022-12-06T04:02:33.018Z,99.90
2022-12-06T04:04:59.912Z,99.90
2022-12-06T04:07:26.741Z,99.90
2022-12-06T04:09:56.301Z,99.90
2022-12-06T04:12:43.022Z,99.90
2022-12-06T04:15:11.114Z,99.90
2022-12-06T04:17:58.191Z,99.90
2022-12-06T04:20:26.470Z,99.90
2022-12-06T04:23:06.069Z,99.90
2022-12-06T04:25:34.540Z,99.90
2022-12-06T04:28:21.590Z,99.90
2022-12-06T04:31:07.495Z,99.90
2022-12-06T04:33:52.819Z,99.90
2022-12-06T04:36:38.462Z,99.90
2022-12-06T04:39:05.592Z,99.90
2022-12-06T04:41:51.239Z,99.90
2022-12-06T04:44:18.383Z,99.90
2022-12-06T04:46:45.860Z,99.90
2022-12-06T04:49:12.822Z,99.90
2022-12-06T04:51:39.715Z,99.90
2022-12-06T04:54:07.287Z,99.90
2022-12-06T04:56:34.560Z,99.90
2022-12-06T04:59:01.575Z,99.90
2022-12-06T05:01:28.414Z,99.90
2022-12-06T05:03:55.308Z,99.90
2022-12-06T05:06:22.167Z,99.90
2022-12-06T05:08:49.078Z,99.90
2022-12-06T05:11:16.089Z,99.90
2022-12-06T05:13:42.926Z,99.90
2022-12-06T05:16:10.227Z,99.90
2022-12-06T05:18:37.119Z,99.90
2022-12-06T05:21:11.094Z,99.90
2022-12-06T05:23:37.927Z,99.90
2022-12-06T05:26:07.647Z,99.90
2022-12-06T05:28:35.126Z,99.90
2022-12-06T05:31:02.328Z,99.90
2022-12-06T05:33:29.568Z,99.90
2022-12-06T05:35:56.861Z,99.90
2022-12-06T05:38:24.052Z,99.90
2022-12-06T05:40:50.993Z,99.90
2022-12-06T05:43:17.843Z,99.90
2022-12-06T05:45:44.980Z,99.90
2022-12-06T05:48:11.862Z,99.90
2022-12-06T05:50:38.723Z,99.90
2022-12-06T05:53:05.597Z,99.90
2022-12-06T05:55:32.784Z,99.90
2022-12-06T05:57:59.644Z,99.90
2022-12-06T06:00:26.568Z,99.90
2022-12-06T06:02:53.509Z,99.90
2022-12-06T06:05:20.535Z,99.90
2022-12-06T06:07:47.627Z,99.90
2022-12-06T06:10:16.165Z,99.90
2022-12-06T06:12:44.683Z,99.90
2022-12-06T06:15:13.053Z,99.90
2022-12-06T06:17:40.247Z,99.90
2022-12-06T06:20:08.289Z,99.90
2022-12-06T06:22:36.479Z,99.90
2022-12-06T06:25:04.181Z,99.90
2022-12-06T06:27:34.621Z,99.90
2022-12-06T06:30:01.714Z,99.90
2022-12-06T06:32:28.812Z,99.90
2022-12-06T06:34:55.654Z,99.90
2022-12-06T06:37:22.445Z,99.90
2022-12-06T06:39:49.288Z,99.90
2022-12-06T06:42:16.176Z,99.90
2022-12-06T06:44:43.026Z,99.90
2022-12-06T06:47:10.063Z,99.90
2022-12-06T06:49:37.077Z,99.90
2022-12-06T06:52:04.130Z,99.90
2022-12-06T06:54:31.113Z,99.90
2022-12-06T06:56:58.386Z,99.90
2022-12-06T06:59:25.349Z,99.90
2022-12-06T07:01:52.260Z,99.90
2022-12-06T07:04:19.181Z,99.90
2022-12-06T07:06:46.042Z,99.90
2022-12-06T07:09:13.144Z,99.90
2022-12-06T07:11:40.396Z,99.90
2022-12-06T07:14:07.266Z,99.90
2022-12-06T07:16:34.600Z,99.90
2022-12-06T07:19:04.724Z,99.90
2022-12-06T07:21:35.952Z,99.90
2022-12-06T07:24:02.915Z,99.90
2022-12-06T07:26:29.765Z,99.90
2022-12-06T07:28:57.901Z,99.90
2022-12-06T07:31:28.141Z,99.90
2022-12-06T07:33:58.164Z,99.90
2022-12-06T07:36:26.191Z,99.90
2022-12-06T07:38:55.137Z,99.90
2022-12-06T07:41:42.596Z,99.90
2022-12-06T07:44:30.443Z,99.90
2022-12-06T07:46:57.790Z,99.90
2022-12-06T07:49:25.110Z,99.90
2022-12-06T07:51:54.157Z,99.90
2022-12-06T07:54:21.405Z,99.90
2022-12-06T07:56:48.350Z,99.90
2022-12-06T07:59:15.292Z,99.90
2022-12-06T08:01:43.353Z,99.90
2022-12-06T08:04:10.337Z,99.90
2022-12-06T08:06:37.274Z,99.90
2022-12-06T08:09:04.894Z,99.90
2022-12-06T08:11:31.829Z,99.90
2022-12-06T08:13:58.670Z,99.90
2022-12-06T08:16:25.704Z,99.90
2022-12-06T08:18:52.783Z,99.90
2022-12-06T08:21:19.727Z,99.90
2022-12-06T08:23:46.603Z,99.90
2022-12-06T08:26:16.610Z,99.90
2022-12-06T08:28:43.528Z,99.90
2022-12-06T08:31:24.123Z,99.90
2022-12-06T08:33:51.056Z,99.90
2022-12-06T08:36:21.948Z,99.90
2022-12-06T08:38:50.779Z,99.90
2022-12-06T08:41:36.466Z,99.90
2022-12-06T08:44:04.792Z,99.90
2022-12-06T08:46:33.245Z,99.90
2022-12-06T08:49:00.450Z,99.90
2022-12-06T08:51:28.439Z,99.90
2022-12-06T08:53:55.699Z,99.90
2022-12-06T08:56:23.178Z,99.90
2022-12-06T08:58:50.578Z,99.90
2022-12-06T09:01:23.645Z,99.90
2022-12-06T09:03:50.672Z,99.90
2022-12-06T09:06:18.912Z,99.90
2022-12-06T09:08:46.386Z,99.90
2022-12-06T09:11:14.771Z,99.90
2022-12-06T09:13:42.367Z,99.90
2022-12-06T09:16:15.962Z,99.90
2022-12-06T09:18:44.169Z,99.90
2022-12-06T09:21:14.242Z,99.90
2022-12-06T09:23:41.349Z,99.90
2022-12-06T09:26:08.636Z,99.90
2022-12-06T09:28:37.923Z,99.90
2022-12-06T09:31:06.218Z,99.90
2022-12-06T09:33:33.728Z,99.90
2022-12-06T09:36:05.547Z,99.90
2022-12-06T09:38:36.180Z,99.90
2022-12-06T09:41:13.095Z,99.90
2022-12-06T09:43:57.162Z,99.90
2022-12-06T09:46:29.884Z,99.90
2022-12-06T09:49:15.082Z,99.90
2022-12-06T09:52:10.470Z,99.90
2022-12-06T09:55:14.682Z,99.90
2022-12-06T09:58:01.997Z,89.60
2022-12-06T10:00:35.849Z,95.30
2022-12-06T10:03:29.459Z,94.30
2022-12-06T10:06:18.132Z,94.80
2022-12-06T10:08:53.669Z,71.60
2022-12-06T10:11:50.656Z,74.30
2022-12-06T10:14:41.467Z,56.90
2022-12-06T10:17:27.215Z,62.30
2022-12-06T10:20:11.808Z,54.00
2022-12-06T10:23:06.459Z,55.90
2022-12-06T10:25:39.463Z,46.10
2022-12-06T10:28:26.372Z,33.60
2022-12-06T10:30:59.779Z,44.20
2022-12-06T10:33:55.291Z,37.50
2022-12-06T10:36:41.007Z,21.50
2022-12-06T10:39:57.925Z,23.50
2022-12-06T10:42:33.359Z,33.00
2022-12-06T10:45:26.547Z,39.70
2022-12-06T10:47:57.432Z,33.20
2022-12-06T10:50:30.092Z,20.90
2022-12-06T10:53:11.963Z,28.10
2022-12-06T10:56:00.001Z,40.30
2022-12-06T10:58:32.878Z,41.50
2022-12-06T11:01:03.765Z,17.00
2022-12-06T11:03:41.459Z,22.30
2022-12-06T11:06:17.318Z,23.10
2022-12-06T11:08:52.684Z,29.00
2022-12-06T11:11:26.859Z,36.30
2022-12-06T11:14:34.232Z,19.20
2022-12-06T11:17:05.871Z,8.20
2022-12-06T11:19:59.773Z,1.00
2022-12-06T11:22:42.208Z,1.00
2022-12-06T11:25:23.354Z,1.90
2022-12-06T11:27:54.063Z,1.40
2022-12-06T11:30:21.181Z,1.40
2022-12-06T11:32:50.719Z,2.70
2022-12-06T11:35:21.654Z,1.00
2022-12-06T11:37:53.520Z,1.00
2022-12-06T11:40:28.613Z,1.00
2022-12-06T11:42:58.864Z,1.00
2022-12-06T11:45:30.156Z,1.00
2022-12-06T11:47:59.438Z,1.00
2022-12-06T11:50:29.424Z,1.00
2022-12-06T11:53:14.067Z,1.00
2022-12-06T11:55:44.273Z,1.00
2022-12-06T11:58:19.950Z,1.00
2022-12-06T12:01:05.506Z,1.00
2022-12-06T12:03:35.487Z,1.00
2022-12-06T12:06:09.454Z,1.00
2022-12-06T12:08:37.808Z,1.00
2022-12-06T12:11:05.156Z,1.00
2022-12-06T12:13:44.935Z,1.00
2022-12-06T12:16:18.866Z,1.00
2022-12-06T12:18:53.820Z,1.00
2022-12-06T12:21:34.708Z,1.00
2022-12-06T12:24:02.367Z,1.00
2022-12-06T12:26:41.489Z,1.00
2022-12-06T12:29:08.290Z,1.00
2022-12-06T12:31:54.467Z,1.00
2022-12-06T12:34:29.600Z,1.00
2022-12-06T12:37:04.796Z,1.00
2022-12-06T12:39:41.243Z,1.00
2022-12-06T12:42:28.278Z,1.00
2022-12-06T12:44:59.413Z,1.00
2022-12-06T12:47:26.951Z,1.00
2022-12-06T12:50:04.105Z,1.00
2022-12-06T12:52:36.605Z,1.00
2022-12-06T12:55:18.428Z,1.00
2022-12-06T12:58:09.264Z,1.00
2022-12-06T13:00:42.057Z,1.00
2022-12-06T13:03:49.473Z,1.00
2022-12-06T13:06:10.372Z,1.00
2022-12-06T13:08:39.039Z,1.00
2022-12-06T13:11:08.529Z,1.00
2022-12-06T13:13:43.747Z,1.00
2022-12-06T13:16:18.406Z,1.00
2022-12-06T13:18:48.505Z,1.00
2022-12-06T13:21:21.187Z,1.00
2022-12-06T13:23:52.571Z,1.00
2022-12-06T13:26:32.182Z,1.00
2022-12-06T13:29:11.276Z,1.00
2022-12-06T13:31:40.106Z,1.00
2022-12-06T13:34:21.258Z,1.00
2022-12-06T13:36:48.471Z,1.00
2022-12-06T13:39:30.577Z,1.00
2022-12-06T13:42:18.094Z,1.00
2022-12-06T13:44:55.771Z,1.00
2022-12-06T13:47:28.655Z,1.00
2022-12-06T13:50:18.348Z,1.00
2022-12-06T13:52:47.911Z,1.00
2022-12-06T13:55:26.859Z,1.00
2022-12-06T13:58:16.404Z,1.00
2022-12-06T14:00:43.185Z,1.00
2022-12-06T14:03:19.397Z,1.00
2022-12-06T14:06:09.135Z,1.00
2022-12-06T14:08:42.933Z,1.00
2022-12-06T14:11:12.495Z,1.00
2022-12-06T14:13:41.100Z,1.00
2022-12-06T14:16:13.356Z,1.00
2022-12-06T14:18:41.916Z,1.00
2022-12-06T14:21:27.183Z,1.00
2022-12-06T14:23:54.033Z,1.00
2022-12-06T14:26:23.111Z,1.00
2022-12-06T14:28:51.510Z,1.00
2022-12-06T14:31:26.560Z,1.00
2022-12-06T14:33:55.035Z,1.00
2022-12-06T14:36:26.890Z,1.00
2022-12-06T14:39:03.067Z,1.00
2022-12-06T14:42:11.885Z,1.00
2022-12-06T14:44:39.789Z,1.00
2022-12-06T14:47:07.834Z,1.00
2022-12-06T14:49:54.700Z,1.00
2022-12-06T14:52:21.469Z,1.00
2022-12-06T14:54:48.846Z,1.00
2022-12-06T14:57:23.832Z,1.00
2022-12-06T15:00:27.063Z,1.00
2022-12-06T15:03:29.052Z,1.00
2022-12-06T15:06:20.666Z,1.00
2022-12-06T15:08:54.944Z,1.00
2022-12-06T15:11:43.102Z,1.00
2022-12-06T15:14:44.950Z,1.00
2022-12-06T15:17:11.706Z,1.00
2022-12-06T15:19:45.282Z,1.00
2022-12-06T15:22:24.936Z,1.00
2022-12-06T15:24:55.487Z,1.00
2022-12-06T15:27:23.438Z,1.00
2022-12-06T15:29:50.448Z,1.00
2022-12-06T15:32:19.317Z,1.00
2022-12-06T15:34:46.590Z,1.00
2022-12-06T15:37:38.826Z,1.00
2022-12-06T15:40:03.311Z,1.00
2022-12-06T15:42:30.351Z,1.00
2022-12-06T15:44:57.161Z,1.00
2022-12-06T15:47:24.123Z,1.00
2022-12-06T15:49:53.270Z,1.00
2022-12-06T15:52:24.870Z,1.00
2022-12-06T15:54:52.117Z,1.00
2022-12-06T15:57:18.990Z,1.00
2022-12-06T15:59:45.807Z,1.00
2022-12-06T16:02:15.684Z,1.00
2022-12-06T16:04:43.222Z,1.00
2022-12-06T16:07:10.795Z,1.00
2022-12-06T16:09:37.965Z,1.00
2022-12-06T16:12:05.047Z,1.00
2022-12-06T16:14:31.851Z,1.00
2022-12-06T16:16:58.697Z,1.00
2022-12-06T16:19:45.507Z,1.00
2022-12-06T16:22:12.365Z,1.00
2022-12-06T16:24:39.216Z,1.00
2022-12-06T16:27:06.064Z,1.00
2022-12-06T16:29:33.458Z,1.00
2022-12-06T16:32:00.367Z,1.00
2022-12-06T16:34:28.592Z,1.00
2022-12-06T16:37:06.576Z,1.00
2022-12-06T16:39:34.700Z,1.00
2022-12-06T16:42:03.383Z,1.00
2022-12-06T16:44:30.638Z,1.00
2022-12-06T16:46:57.815Z,1.00
2022-12-06T16:52:14.547Z,1.00
2022-12-06T16:54:41.958Z,1.00
2022-12-06T16:57:12.719Z,1.00
2022-12-06T16:59:40.551Z,1.00
2022-12-06T17:02:27.769Z,1.00
2022-12-06T17:04:56.135Z,1.00
2022-12-06T17:07:23.682Z,1.00
2022-12-06T17:09:50.517Z,1.00
2022-12-06T17:12:17.352Z,1.00
2022-12-06T17:14:44.372Z,1.00
2022-12-06T17:17:20.251Z,1.00
2022-12-06T17:19:47.856Z,1.00
2022-12-06T17:22:19.309Z,1.00
2022-12-06T17:24:46.399Z,1.00
2022-12-06T17:27:14.950Z,1.00
2022-12-06T17:29:45.618Z,1.00
2022-12-06T17:32:13.256Z,1.00
2022-12-06T17:34:40.133Z,1.00
2022-12-06T17:37:07.041Z,1.00
2022-12-06T17:39:33.988Z,1.00
2022-12-06T17:42:19.869Z,1.00
2022-12-06T17:44:46.704Z,2.90
2022-12-06T17:47:13.665Z,8.40
2022-12-06T17:49:40.490Z,14.10
2022-12-06T17:52:07.403Z,13.80
2022-12-06T17:54:34.244Z,16.20
2022-12-06T17:57:01.100Z,21.20
2022-12-06T17:59:30.437Z,25.10
2022-12-06T18:02:18.008Z,24.10
2022-12-06T18:04:46.187Z,25.60
2022-12-06T18:07:13.931Z,34.80
2022-12-06T18:09:41.153Z,35.30
2022-12-06T18:12:12.448Z,37.10
2022-12-06T18:14:39.493Z,32.90
2022-12-06T18:17:06.595Z,38.70
2022-12-06T18:19:33.662Z,36.70
2022-12-06T18:22:00.637Z,37.20
2022-12-06T18:24:32.026Z,41.90
2022-12-06T18:27:02.191Z,43.90
2022-12-06T18:29:29.027Z,43.00
2022-12-06T18:31:55.941Z,45.10
2022-12-06T18:34:23.049Z,48.70
2022-12-06T18:36:50.993Z,49.00
2022-12-06T18:39:24.321Z,45.70
2022-12-06T18:41:52.719Z,48.50
2022-12-06T18:44:19.763Z,44.30
2022-12-06T18:46:46.660Z,47.20
2022-12-06T18:49:13.558Z,45.50
2022-12-06T18:51:40.607Z,47.20
2022-12-06T18:54:08.214Z,43.20
2022-12-06T18:56:35.615Z,76.00
2022-12-06T18:59:05.890Z,48.60
2022-12-06T19:01:34.987Z,40.40
2022-12-06T19:04:03.647Z,41.50
2022-12-06T19:06:39.386Z,41.50
2022-12-06T19:09:12.220Z,40.40
2022-12-06T19:11:40.911Z,32.90
2022-12-06T19:14:08.091Z,36.00
2022-12-06T19:16:39.800Z,38.60
2022-12-06T19:19:15.757Z,35.30
2022-12-06T19:21:44.273Z,27.80
2022-12-06T19:24:13.152Z,20.20
2022-12-06T19:26:40.849Z,22.90
2022-12-06T19:29:07.838Z,24.00
2022-12-06T19:31:35.395Z,22.90
2022-12-06T19:34:02.249Z,23.50
2022-12-06T19:36:30.700Z,24.20
2022-12-06T19:38:58.464Z,28.30
2022-12-06T19:41:26.076Z,29.50
2022-12-06T19:44:12.228Z,26.20
2022-12-06T19:46:43.529Z,25.70
2022-12-06T19:49:11.704Z,27.20
2022-12-06T19:51:40.053Z,31.40
2022-12-06T19:54:07.716Z,33.20
2022-12-06T19:56:35.627Z,27.30
2022-12-06T19:59:11.721Z,28.40
2022-12-06T20:01:41.582Z,29.00
2022-12-06T20:04:09.237Z,32.20
2022-12-06T20:06:36.706Z,38.30
2022-12-06T20:09:03.649Z,44.50
2022-12-06T20:11:49.536Z,47.80
2022-12-06T20:14:18.335Z,50.20
2022-12-06T20:16:45.386Z,57.20
2022-12-06T20:19:15.534Z,60.40
2022-12-06T20:21:43.479Z,66.50
2022-12-06T20:24:16.469Z,68.10
2022-12-06T20:26:43.508Z,74.40
2022-12-06T20:29:10.828Z,79.10
2022-12-06T20:31:38.054Z,82.60
2022-12-06T20:34:11.532Z,87.50
2022-12-06T20:36:41.742Z,84.20
2022-12-06T20:39:19.072Z,97.10
2022-12-06T20:41:45.911Z,99.90
2022-12-06T20:44:12.770Z,99.90
2022-12-06T20:46:39.828Z,99.90
2022-12-06T20:49:06.754Z,99.90
2022-12-06T20:51:34.413Z,99.90
2022-12-06T20:54:04.063Z,99.90
2022-12-06T20:56:34.445Z,99.90
2022-12-06T20:59:02.568Z,99.90
2022-12-06T21:01:35.745Z,99.90
2022-12-06T21:04:02.804Z,99.90
2022-12-06T21:06:29.667Z,99.90
2022-12-06T21:08:56.665Z,99.90
2022-12-06T21:11:25.315Z,99.90
2022-12-06T21:13:54.314Z,99.90
2022-12-06T21:16:27.611Z,99.90
2022-12-06T21:19:00.813Z,99.90
2022-12-06T21:21:38.593Z,99.90
2022-12-06T21:24:09.723Z,99.90
2022-12-06T21:26:36.845Z,99.90
2022-12-06T21:29:04.484Z,99.90
2022-12-06T21:31:36.738Z,99.90
2022-12-06T21:34:04.261Z,99.90
2022-12-06T21:36:31.275Z,99.90
2022-12-06T21:38:58.916Z,99.90
2022-12-06T21:41:26.150Z,99.90
2022-12-06T21:43:53.461Z,99.90
2022-12-06T21:46:25.720Z,99.90
2022-12-06T21:48:54.148Z,99.90
2022-12-06T21:51:22.419Z,99.90
2022-12-06T21:53:49.948Z,99.90
2022-12-06T21:56:19.402Z,99.90
2022-12-06T21:58:47.094Z,99.90
2022-12-06T22:01:19.274Z,99.90
2022-12-06T22:03:50.193Z,99.90
2022-12-06T22:06:17.496Z,99.90
2022-12-06T22:08:46.062Z,99.90
2022-12-06T22:11:19.203Z,99.90
2022-12-06T22:13:48.088Z,99.90
2022-12-06T22:16:16.158Z,99.90
2022-12-06T22:18:45.895Z,99.90
2022-12-06T22:21:21.003Z,99.90
2022-12-06T22:23:48.646Z,99.90
2022-12-06T22:26:18.825Z,99.90
2022-12-06T22:28:46.776Z,99.90
2022-12-06T22:31:20.008Z,99.90
2022-12-06T22:33:47.552Z,99.90
2022-12-06T22:36:15.835Z,99.90
2022-12-06T22:38:43.200Z,99.90
2022-12-06T22:41:10.841Z,99.90
2022-12-06T22:43:38.901Z,99.90
2022-12-06T22:46:11.436Z,99.90
2022-12-06T22:48:39.038Z,99.90
2022-12-06T22:51:11.467Z,99.90
2022-12-06T22:53:42.628Z,99.90
2022-12-06T22:56:09.988Z,99.90
2022-12-06T22:58:37.146Z,99.90
2022-12-06T23:01:16.344Z,99.90
2022-12-06T23:03:45.807Z,99.90
2022-12-06T23:06:14.211Z,99.90
2022-12-06T23:08:41.789Z,99.90
2022-12-06T23:11:12.920Z,99.90
2022-12-06T23:13:39.885Z,99.90
2022-12-06T23:16:10.987Z,99.90
2022-12-06T23:18:37.910Z,99.90
2022-12-06T23:21:11.943Z,99.90
2022-12-06T23:23:41.344Z,99.90
2022-12-06T23:26:12.502Z,99.90
2022-12-06T23:28:39.471Z,99.90
2022-12-06T23:31:09.930Z,99.90
2022-12-06T23:33:36.911Z,99.90
2022-12-06T23:36:06.796Z,99.90
2022-12-06T23:38:34.563Z,99.90
2022-12-06T23:41:23.382Z,99.90
2022-12-06T23:43:50.993Z,99.90
2022-12-06T23:46:22.451Z,99.90
2022-12-06T23:48:50.691Z,99.90
2022-12-06T23:51:20.171Z,99.90
2022-12-06T23:53:51.507Z,99.90
2022-12-06T23:56:20.090Z,99.90
2022-12-06T23:58:50.269Z,99.90
